sensor_id;sensor_type;location;lat;lon;timestamp;P1;durP1;ratioP1;P2;durP2;ratioP2
37303;SDS011;23188;51.188;16.374;2022-08-19T00:01:26;14.98;;;12.70;;
37303;SDS011;23188;51.188;16.374;2022-08-19T00:05:29;14.53;;;10.97;;
37303;SDS011;23188;51.188;16.374;2022-08-19T00:09:32;15.15;;;11.10;;
37303;SDS011;23188;51.188;16.374;2022-08-19T00:13:34;16.67;;;11.35;;
37303;SDS011;23188;51.188;16.374;2022-08-19T00:17:37;12.60;;;11.22;;
37303;SDS011;23188;51.188;16.374;2022-08-19T00:21:41;13.50;;;11.73;;
37303;SDS011;23188;51.188;16.374;2022-08-19T00:25:43;16.52;;;12.30;;
37303;SDS011;23188;51.188;16.374;2022-08-19T00:29:45;15.63;;;11.28;;
37303;SDS011;23188;51.188;16.374;2022-08-19T00:33:47;13.40;;;10.98;;
37303;SDS011;23188;51.188;16.374;2022-08-19T00:37:50;10.70;;;9.70;;
37303;SDS011;23188;51.188;16.374;2022-08-19T00:41:52;13.88;;;11.12;;
37303;SDS011;23188;51.188;16.374;2022-08-19T00:45:53;12.93;;;11.60;;
37303;SDS011;23188;51.188;16.374;2022-08-19T00:49:56;12.35;;;11.05;;
37303;SDS011;23188;51.188;16.374;2022-08-19T00:53:59;10.75;;;9.75;;
37303;SDS011;23188;51.188;16.374;2022-08-19T00:58:04;16.82;;;11.73;;
37303;SDS011;23188;51.188;16.374;2022-08-19T01:02:08;10.93;;;9.83;;
37303;SDS011;23188;51.188;16.374;2022-08-19T01:06:09;11.97;;;10.65;;
37303;SDS011;23188;51.188;16.374;2022-08-19T01:10:12;14.45;;;12.95;;
37303;SDS011;23188;51.188;16.374;2022-08-19T01:14:18;17.42;;;11.30;;
37303;SDS011;23188;51.188;16.374;2022-08-19T01:18:20;11.65;;;10.45;;
37303;SDS011;23188;51.188;16.374;2022-08-19T01:26:37;12.37;;;11.10;;
37303;SDS011;23188;51.188;16.374;2022-08-19T01:30:42;18.77;;;12.85;;
37303;SDS011;23188;51.188;16.374;2022-08-19T01:34:44;15.45;;;12.47;;
37303;SDS011;23188;51.188;16.374;2022-08-19T01:38:47;17.82;;;12.82;;
37303;SDS011;23188;51.188;16.374;2022-08-19T01:42:49;13.25;;;11.18;;
37303;SDS011;23188;51.188;16.374;2022-08-19T01:46:52;16.30;;;11.25;;
37303;SDS011;23188;51.188;16.374;2022-08-19T01:50:54;16.62;;;11.38;;
37303;SDS011;23188;51.188;16.374;2022-08-19T01:54:56;14.20;;;12.03;;
37303;SDS011;23188;51.188;16.374;2022-08-19T01:59:00;16.02;;;13.85;;
37303;SDS011;23188;51.188;16.374;2022-08-19T02:03:07;13.68;;;11.25;;
37303;SDS011;23188;51.188;16.374;2022-08-19T02:07:09;12.98;;;11.68;;
37303;SDS011;23188;51.188;16.374;2022-08-19T02:11:17;13.48;;;11.57;;
37303;SDS011;23188;51.188;16.374;2022-08-19T02:15:29;23.50;;;12.85;;
37303;SDS011;23188;51.188;16.374;2022-08-19T02:19:30;13.58;;;12.00;;
37303;SDS011;23188;51.188;16.374;2022-08-19T02:23:33;21.05;;;14.00;;
37303;SDS011;23188;51.188;16.374;2022-08-19T02:27:34;13.62;;;10.98;;
37303;SDS011;23188;51.188;16.374;2022-08-19T02:31:35;13.15;;;10.43;;
37303;SDS011;23188;51.188;16.374;2022-08-19T02:35:40;20.90;;;13.80;;
37303;SDS011;23188;51.188;16.374;2022-08-19T02:39:47;16.65;;;13.45;;
37303;SDS011;23188;51.188;16.374;2022-08-19T02:43:48;16.55;;;13.58;;
37303;SDS011;23188;51.188;16.374;2022-08-19T02:47:50;16.07;;;12.50;;
37303;SDS011;23188;51.188;16.374;2022-08-19T02:51:51;12.75;;;11.38;;
37303;SDS011;23188;51.188;16.374;2022-08-19T02:55:53;15.10;;;12.03;;
37303;SDS011;23188;51.188;16.374;2022-08-19T02:59:55;13.25;;;11.80;;
37303;SDS011;23188;51.188;16.374;2022-08-19T03:03:57;12.20;;;10.95;;
37303;SDS011;23188;51.188;16.374;2022-08-19T03:08:01;13.72;;;12.40;;
37303;SDS011;23188;51.188;16.374;2022-08-19T03:12:04;16.25;;;11.93;;
37303;SDS011;23188;51.188;16.374;2022-08-19T03:16:06;14.73;;;12.82;;
37303;SDS011;23188;51.188;16.374;2022-08-19T03:20:08;15.10;;;13.50;;
37303;SDS011;23188;51.188;16.374;2022-08-19T03:24:10;13.38;;;11.97;;
37303;SDS011;23188;51.188;16.374;2022-08-19T03:28:13;42.60;;;15.43;;
37303;SDS011;23188;51.188;16.374;2022-08-19T03:32:15;18.27;;;12.28;;
37303;SDS011;23188;51.188;16.374;2022-08-19T03:36:19;13.98;;;11.30;;
37303;SDS011;23188;51.188;16.374;2022-08-19T03:40:23;13.32;;;11.60;;
37303;SDS011;23188;51.188;16.374;2022-08-19T03:44:24;15.18;;;11.65;;
37303;SDS011;23188;51.188;16.374;2022-08-19T03:48:26;15.13;;;12.43;;
37303;SDS011;23188;51.188;16.374;2022-08-19T03:52:27;15.38;;;10.90;;
37303;SDS011;23188;51.188;16.374;2022-08-19T03:56:29;17.52;;;13.55;;
37303;SDS011;23188;51.188;16.374;2022-08-19T04:00:33;17.12;;;12.00;;
37303;SDS011;23188;51.188;16.374;2022-08-19T04:04:35;20.92;;;12.28;;
37303;SDS011;23188;51.188;16.374;2022-08-19T04:08:39;17.15;;;14.35;;
37303;SDS011;23188;51.188;16.374;2022-08-19T04:12:42;17.02;;;14.03;;
37303;SDS011;23188;51.188;16.374;2022-08-19T04:16:44;16.27;;;12.90;;
37303;SDS011;23188;51.188;16.374;2022-08-19T04:20:47;14.03;;;11.95;;
37303;SDS011;23188;51.188;16.374;2022-08-19T04:24:49;17.02;;;12.37;;
37303;SDS011;23188;51.188;16.374;2022-08-19T04:28:50;13.72;;;11.63;;
37303;SDS011;23188;51.188;16.374;2022-08-19T04:32:52;13.68;;;12.05;;
37303;SDS011;23188;51.188;16.374;2022-08-19T04:36:54;16.30;;;14.25;;
37303;SDS011;23188;51.188;16.374;2022-08-19T04:40:59;14.20;;;11.80;;
37303;SDS011;23188;51.188;16.374;2022-08-19T04:45:18;15.48;;;13.95;;
37303;SDS011;23188;51.188;16.374;2022-08-19T04:49:21;18.90;;;14.20;;
37303;SDS011;23188;51.188;16.374;2022-08-19T04:53:25;15.28;;;11.53;;
37303;SDS011;23188;51.188;16.374;2022-08-19T04:57:29;14.50;;;12.00;;
37303;SDS011;23188;51.188;16.374;2022-08-19T05:01:31;17.65;;;12.60;;
37303;SDS011;23188;51.188;16.374;2022-08-19T05:05:33;37.93;;;19.90;;
37303;SDS011;23188;51.188;16.374;2022-08-19T05:09:41;15.30;;;12.68;;
37303;SDS011;23188;51.188;16.374;2022-08-19T05:13:43;14.58;;;12.10;;
37303;SDS011;23188;51.188;16.374;2022-08-19T05:17:45;19.92;;;12.98;;
37303;SDS011;23188;51.188;16.374;2022-08-19T05:21:49;23.70;;;16.40;;
37303;SDS011;23188;51.188;16.374;2022-08-19T05:26:09;21.45;;;13.80;;
37303;SDS011;23188;51.188;16.374;2022-08-19T05:30:12;25.10;;;15.38;;
37303;SDS011;23188;51.188;16.374;2022-08-19T05:34:13;17.15;;;14.45;;
37303;SDS011;23188;51.188;16.374;2022-08-19T05:38:16;17.62;;;13.72;;
37303;SDS011;23188;51.188;16.374;2022-08-19T05:42:18;17.57;;;13.58;;
37303;SDS011;23188;51.188;16.374;2022-08-19T05:46:20;18.67;;;13.93;;
37303;SDS011;23188;51.188;16.374;2022-08-19T05:50:22;15.23;;;13.62;;
37303;SDS011;23188;51.188;16.374;2022-08-19T05:54:24;17.02;;;13.62;;
37303;SDS011;23188;51.188;16.374;2022-08-19T05:58:27;14.87;;;13.35;;
37303;SDS011;23188;51.188;16.374;2022-08-19T06:02:28;16.17;;;14.28;;
37303;SDS011;23188;51.188;16.374;2022-08-19T06:06:32;18.23;;;12.88;;
37303;SDS011;23188;51.188;16.374;2022-08-19T06:10:35;17.92;;;13.78;;
37303;SDS011;23188;51.188;16.374;2022-08-19T06:14:37;19.12;;;13.18;;
37303;SDS011;23188;51.188;16.374;2022-08-19T06:18:38;17.35;;;13.20;;
37303;SDS011;23188;51.188;16.374;2022-08-19T06:22:43;17.45;;;13.72;;
37303;SDS011;23188;51.188;16.374;2022-08-19T06:26:47;18.32;;;14.15;;
37303;SDS011;23188;51.188;16.374;2022-08-19T06:30:50;19.85;;;15.18;;
37303;SDS011;23188;51.188;16.374;2022-08-19T06:34:52;19.67;;;14.20;;
37303;SDS011;23188;51.188;16.374;2022-08-19T06:38:54;21.90;;;16.42;;
37303;SDS011;23188;51.188;16.374;2022-08-19T06:47:02;24.63;;;16.75;;
37303;SDS011;23188;51.188;16.374;2022-08-19T06:51:05;16.90;;;13.38;;
37303;SDS011;23188;51.188;16.374;2022-08-19T06:55:07;15.58;;;13.98;;
37303;SDS011;23188;51.188;16.374;2022-08-19T06:59:11;16.67;;;14.00;;
37303;SDS011;23188;51.188;16.374;2022-08-19T07:03:16;13.50;;;11.95;;
37303;SDS011;23188;51.188;16.374;2022-08-19T07:07:18;16.50;;;10.53;;
37303;SDS011;23188;51.188;16.374;2022-08-19T07:11:21;11.80;;;10.40;;
37303;SDS011;23188;51.188;16.374;2022-08-19T07:15:23;22.02;;;12.00;;
37303;SDS011;23188;51.188;16.374;2022-08-19T07:19:25;11.33;;;8.83;;
37303;SDS011;23188;51.188;16.374;2022-08-19T07:23:27;14.03;;;10.40;;
37303;SDS011;23188;51.188;16.374;2022-08-19T07:27:29;13.55;;;10.63;;
37303;SDS011;23188;51.188;16.374;2022-08-19T07:31:31;11.45;;;9.48;;
37303;SDS011;23188;51.188;16.374;2022-08-19T07:35:34;18.23;;;10.63;;
37303;SDS011;23188;51.188;16.374;2022-08-19T07:39:36;13.30;;;10.88;;
37303;SDS011;23188;51.188;16.374;2022-08-19T07:43:39;14.00;;;10.68;;
37303;SDS011;23188;51.188;16.374;2022-08-19T07:47:41;12.23;;;10.40;;
37303;SDS011;23188;51.188;16.374;2022-08-19T07:51:43;11.88;;;10.50;;
37303;SDS011;23188;51.188;16.374;2022-08-19T07:55:47;14.05;;;10.28;;
37303;SDS011;23188;51.188;16.374;2022-08-19T07:59:49;13.43;;;11.68;;
37303;SDS011;23188;51.188;16.374;2022-08-19T08:03:51;14.23;;;10.90;;
37303;SDS011;23188;51.188;16.374;2022-08-19T08:08:12;10.63;;;9.58;;
37303;SDS011;23188;51.188;16.374;2022-08-19T08:12:35;10.23;;;8.35;;
37303;SDS011;23188;51.188;16.374;2022-08-19T08:16:40;9.40;;;8.20;;
37303;SDS011;23188;51.188;16.374;2022-08-19T08:20:43;9.30;;;8.38;;
37303;SDS011;23188;51.188;16.374;2022-08-19T08:24:45;13.32;;;9.30;;
37303;SDS011;23188;51.188;16.374;2022-08-19T08:28:47;37.15;;;12.70;;
37303;SDS011;23188;51.188;16.374;2022-08-19T08:32:48;20.92;;;9.30;;
37303;SDS011;23188;51.188;16.374;2022-08-19T08:36:51;10.63;;;9.00;;
37303;SDS011;23188;51.188;16.374;2022-08-19T08:40:56;22.05;;;11.53;;
37303;SDS011;23188;51.188;16.374;2022-08-19T08:45:03;18.10;;;7.08;;
37303;SDS011;23188;51.188;16.374;2022-08-19T08:53:23;13.35;;;9.73;;
37303;SDS011;23188;51.188;16.374;2022-08-19T08:57:27;10.08;;;9.08;;
37303;SDS011;23188;51.188;16.374;2022-08-19T09:01:52;14.45;;;10.68;;
37303;SDS011;23188;51.188;16.374;2022-08-19T09:10:15;17.27;;;11.22;;
37303;SDS011;23188;51.188;16.374;2022-08-19T09:14:36;25.72;;;11.88;;
37303;SDS011;23188;51.188;16.374;2022-08-19T09:18:51;20.55;;;10.98;;
37303;SDS011;23188;51.188;16.374;2022-08-19T09:22:58;11.95;;;10.10;;
37303;SDS011;23188;51.188;16.374;2022-08-19T09:27:00;28.67;;;10.38;;
37303;SDS011;23188;51.188;16.374;2022-08-19T09:31:03;10.82;;;8.93;;
37303;SDS011;23188;51.188;16.374;2022-08-19T09:35:04;11.93;;;9.38;;
37303;SDS011;23188;51.188;16.374;2022-08-19T09:39:06;12.58;;;9.33;;
37303;SDS011;23188;51.188;16.374;2022-08-19T09:43:08;12.18;;;10.93;;
37303;SDS011;23188;51.188;16.374;2022-08-19T09:47:11;13.83;;;10.10;;
37303;SDS011;23188;51.188;16.374;2022-08-19T09:51:15;12.33;;;10.23;;
37303;SDS011;23188;51.188;16.374;2022-08-19T09:55:23;14.20;;;10.48;;
37303;SDS011;23188;51.188;16.374;2022-08-19T09:59:26;13.30;;;10.00;;
37303;SDS011;23188;51.188;16.374;2022-08-19T10:03:29;11.53;;;8.53;;
37303;SDS011;23188;51.188;16.374;2022-08-19T10:07:32;9.85;;;8.10;;
37303;SDS011;23188;51.188;16.374;2022-08-19T10:11:34;11.12;;;8.25;;
37303;SDS011;23188;51.188;16.374;2022-08-19T10:15:37;9.50;;;8.58;;
37303;SDS011;23188;51.188;16.374;2022-08-19T10:19:42;13.90;;;9.93;;
37303;SDS011;23188;51.188;16.374;2022-08-19T10:23:45;12.82;;;10.72;;
37303;SDS011;23188;51.188;16.374;2022-08-19T10:27:50;8.70;;;7.85;;
37303;SDS011;23188;51.188;16.374;2022-08-19T10:31:52;15.20;;;10.00;;
37303;SDS011;23188;51.188;16.374;2022-08-19T10:36:04;10.95;;;8.35;;
37303;SDS011;23188;51.188;16.374;2022-08-19T10:40:12;9.08;;;8.18;;
37303;SDS011;23188;51.188;16.374;2022-08-19T10:44:13;17.75;;;7.75;;
37303;SDS011;23188;51.188;16.374;2022-08-19T10:48:17;9.43;;;8.28;;
37303;SDS011;23188;51.188;16.374;2022-08-19T10:52:18;13.13;;;8.25;;
37303;SDS011;23188;51.188;16.374;2022-08-19T10:56:35;8.05;;;7.25;;
37303;SDS011;23188;51.188;16.374;2022-08-19T11:00:57;13.68;;;8.68;;
37303;SDS011;23188;51.188;16.374;2022-08-19T11:04:57;9.73;;;7.60;;
37303;SDS011;23188;51.188;16.374;2022-08-19T11:08:59;8.45;;;7.65;;
37303;SDS011;23188;51.188;16.374;2022-08-19T11:13:00;15.28;;;8.23;;
37303;SDS011;23188;51.188;16.374;2022-08-19T11:17:03;7.80;;;6.80;;
37303;SDS011;23188;51.188;16.374;2022-08-19T11:21:11;9.47;;;6.57;;
37303;SDS011;23188;51.188;16.374;2022-08-19T11:25:17;7.85;;;5.85;;
37303;SDS011;23188;51.188;16.374;2022-08-19T11:29:19;13.68;;;7.53;;
37303;SDS011;23188;51.188;16.374;2022-08-19T11:33:22;7.45;;;6.62;;
37303;SDS011;23188;51.188;16.374;2022-08-19T11:37:25;9.80;;;6.67;;
37303;SDS011;23188;51.188;16.374;2022-08-19T11:41:27;43.02;;;14.80;;
37303;SDS011;23188;51.188;16.374;2022-08-19T11:45:29;38.13;;;14.25;;
37303;SDS011;23188;51.188;16.374;2022-08-19T11:49:31;17.25;;;13.50;;
37303;SDS011;23188;51.188;16.374;2022-08-19T11:53:35;17.00;;;11.60;;
37303;SDS011;23188;51.188;16.374;2022-08-19T11:57:37;18.77;;;12.45;;
37303;SDS011;23188;51.188;16.374;2022-08-19T12:01:41;17.07;;;13.98;;
37303;SDS011;23188;51.188;16.374;2022-08-19T12:05:43;17.32;;;13.00;;
37303;SDS011;23188;51.188;16.374;2022-08-19T12:09:45;16.30;;;14.40;;
37303;SDS011;23188;51.188;16.374;2022-08-19T12:13:46;17.70;;;13.08;;
37303;SDS011;23188;51.188;16.374;2022-08-19T12:17:48;15.60;;;12.95;;
37303;SDS011;23188;51.188;16.374;2022-08-19T12:21:50;15.83;;;12.85;;
37303;SDS011;23188;51.188;16.374;2022-08-19T12:25:55;16.60;;;13.00;;
37303;SDS011;23188;51.188;16.374;2022-08-19T12:29:57;18.70;;;15.38;;
37303;SDS011;23188;51.188;16.374;2022-08-19T12:34:00;16.75;;;13.58;;
37303;SDS011;23188;51.188;16.374;2022-08-19T12:38:02;29.92;;;16.45;;
37303;SDS011;23188;51.188;16.374;2022-08-19T12:42:04;17.32;;;13.90;;
37303;SDS011;23188;51.188;16.374;2022-08-19T12:46:06;19.23;;;14.68;;
37303;SDS011;23188;51.188;16.374;2022-08-19T12:50:08;17.73;;;15.43;;
37303;SDS011;23188;51.188;16.374;2022-08-19T12:54:10;20.08;;;16.12;;
37303;SDS011;23188;51.188;16.374;2022-08-19T12:58:11;18.10;;;15.45;;
37303;SDS011;23188;51.188;16.374;2022-08-19T13:02:13;14.03;;;12.73;;
37303;SDS011;23188;51.188;16.374;2022-08-19T13:06:14;19.65;;;14.03;;
37303;SDS011;23188;51.188;16.374;2022-08-19T13:10:17;18.75;;;13.98;;
37303;SDS011;23188;51.188;16.374;2022-08-19T13:14:21;14.80;;;13.22;;
37303;SDS011;23188;51.188;16.374;2022-08-19T13:18:23;15.28;;;13.60;;
37303;SDS011;23188;51.188;16.374;2022-08-19T13:22:25;14.03;;;12.40;;
37303;SDS011;23188;51.188;16.374;2022-08-19T13:26:27;15.38;;;13.62;;
37303;SDS011;23188;51.188;16.374;2022-08-19T13:30:28;14.13;;;12.63;;
37303;SDS011;23188;51.188;16.374;2022-08-19T13:34:51;13.00;;;11.65;;
37303;SDS011;23188;51.188;16.374;2022-08-19T13:38:52;23.62;;;12.28;;
37303;SDS011;23188;51.188;16.374;2022-08-19T13:42:54;12.40;;;11.12;;
37303;SDS011;23188;51.188;16.374;2022-08-19T13:47:06;14.60;;;13.15;;
37303;SDS011;23188;51.188;16.374;2022-08-19T13:51:07;13.62;;;11.95;;
37303;SDS011;23188;51.188;16.374;2022-08-19T13:59:13;15.00;;;13.20;;
37303;SDS011;23188;51.188;16.374;2022-08-19T14:03:15;12.70;;;11.25;;
37303;SDS011;23188;51.188;16.374;2022-08-19T14:07:16;12.00;;;10.78;;
37303;SDS011;23188;51.188;16.374;2022-08-19T14:11:18;13.53;;;11.35;;
37303;SDS011;23188;51.188;16.374;2022-08-19T14:15:19;12.55;;;11.35;;
37303;SDS011;23188;51.188;16.374;2022-08-19T14:19:21;15.95;;;10.78;;
37303;SDS011;23188;51.188;16.374;2022-08-19T14:23:23;16.35;;;11.85;;
37303;SDS011;23188;51.188;16.374;2022-08-19T14:27:24;11.90;;;9.75;;
37303;SDS011;23188;51.188;16.374;2022-08-19T14:31:26;12.93;;;11.70;;
37303;SDS011;23188;51.188;16.374;2022-08-19T14:35:28;13.70;;;11.73;;
37303;SDS011;23188;51.188;16.374;2022-08-19T14:39:33;14.73;;;11.38;;
37303;SDS011;23188;51.188;16.374;2022-08-19T14:43:35;12.15;;;10.15;;
37303;SDS011;23188;51.188;16.374;2022-08-19T14:47:37;28.75;;;16.82;;
37303;SDS011;23188;51.188;16.374;2022-08-19T14:51:39;11.75;;;10.08;;
37303;SDS011;23188;51.188;16.374;2022-08-19T14:55:41;13.93;;;12.47;;
37303;SDS011;23188;51.188;16.374;2022-08-19T14:59:45;12.82;;;10.03;;
37303;SDS011;23188;51.188;16.374;2022-08-19T15:03:47;18.60;;;10.90;;
37303;SDS011;23188;51.188;16.374;2022-08-19T15:07:49;15.03;;;11.95;;
37303;SDS011;23188;51.188;16.374;2022-08-19T15:11:51;13.45;;;11.20;;
37303;SDS011;23188;51.188;16.374;2022-08-19T15:15:53;25.08;;;11.90;;
37303;SDS011;23188;51.188;16.374;2022-08-19T15:19:55;11.70;;;10.43;;
37303;SDS011;23188;51.188;16.374;2022-08-19T15:23:57;14.07;;;10.30;;
37303;SDS011;23188;51.188;16.374;2022-08-19T15:28:00;16.37;;;12.18;;
37303;SDS011;23188;51.188;16.374;2022-08-19T15:32:01;19.35;;;13.62;;
37303;SDS011;23188;51.188;16.374;2022-08-19T15:36:04;18.27;;;14.93;;
37303;SDS011;23188;51.188;16.374;2022-08-19T15:40:06;17.25;;;12.40;;
37303;SDS011;23188;51.188;16.374;2022-08-19T15:44:12;12.68;;;11.38;;
37303;SDS011;23188;51.188;16.374;2022-08-19T15:48:17;11.05;;;9.93;;
37303;SDS011;23188;51.188;16.374;2022-08-19T15:52:19;14.03;;;10.43;;
37303;SDS011;23188;51.188;16.374;2022-08-19T15:56:21;12.07;;;10.88;;
37303;SDS011;23188;51.188;16.374;2022-08-19T16:00:23;14.60;;;11.57;;
37303;SDS011;23188;51.188;16.374;2022-08-19T16:04:43;11.00;;;9.58;;
37303;SDS011;23188;51.188;16.374;2022-08-19T16:09:03;11.43;;;10.18;;
37303;SDS011;23188;51.188;16.374;2022-08-19T16:13:04;13.62;;;11.48;;
37303;SDS011;23188;51.188;16.374;2022-08-19T16:17:06;11.73;;;9.65;;
37303;SDS011;23188;51.188;16.374;2022-08-19T16:21:09;23.55;;;11.25;;
37303;SDS011;23188;51.188;16.374;2022-08-19T16:25:11;14.65;;;9.35;;
37303;SDS011;23188;51.188;16.374;2022-08-19T16:29:13;10.58;;;9.53;;
37303;SDS011;23188;51.188;16.374;2022-08-19T16:33:16;13.20;;;9.70;;
37303;SDS011;23188;51.188;16.374;2022-08-19T16:37:18;11.12;;;9.18;;
37303;SDS011;23188;51.188;16.374;2022-08-19T16:41:21;11.20;;;9.95;;
37303;SDS011;23188;51.188;16.374;2022-08-19T16:45:22;26.30;;;12.53;;
37303;SDS011;23188;51.188;16.374;2022-08-19T16:49:25;18.40;;;11.08;;
37303;SDS011;23188;51.188;16.374;2022-08-19T16:53:28;11.27;;;9.50;;
37303;SDS011;23188;51.188;16.374;2022-08-19T16:57:31;12.25;;;9.95;;
37303;SDS011;23188;51.188;16.374;2022-08-19T17:01:32;15.68;;;10.80;;
37303;SDS011;23188;51.188;16.374;2022-08-19T17:05:34;14.93;;;10.98;;
37303;SDS011;23188;51.188;16.374;2022-08-19T17:09:45;12.37;;;10.30;;
37303;SDS011;23188;51.188;16.374;2022-08-19T17:13:47;15.65;;;9.78;;
37303;SDS011;23188;51.188;16.374;2022-08-19T17:17:50;12.13;;;10.82;;
37303;SDS011;23188;51.188;16.374;2022-08-19T17:21:52;19.75;;;10.53;;
37303;SDS011;23188;51.188;16.374;2022-08-19T17:25:54;22.45;;;13.60;;
37303;SDS011;23188;51.188;16.374;2022-08-19T17:29:55;13.45;;;11.28;;
37303;SDS011;23188;51.188;16.374;2022-08-19T17:33:59;15.10;;;10.43;;
37303;SDS011;23188;51.188;16.374;2022-08-19T17:38:05;18.02;;;10.78;;
37303;SDS011;23188;51.188;16.374;2022-08-19T17:42:08;12.07;;;10.38;;
37303;SDS011;23188;51.188;16.374;2022-08-19T17:46:10;12.18;;;10.85;;
37303;SDS011;23188;51.188;16.374;2022-08-19T17:50:17;10.50;;;9.40;;
37303;SDS011;23188;51.188;16.374;2022-08-19T17:54:19;11.65;;;10.55;;
37303;SDS011;23188;51.188;16.374;2022-08-19T17:58:21;13.58;;;10.53;;
37303;SDS011;23188;51.188;16.374;2022-08-19T18:02:22;11.10;;;9.40;;
37303;SDS011;23188;51.188;16.374;2022-08-19T18:06:25;11.78;;;10.35;;
37303;SDS011;23188;51.188;16.374;2022-08-19T18:10:28;11.93;;;9.98;;
37303;SDS011;23188;51.188;16.374;2022-08-19T18:14:32;16.57;;;11.15;;
37303;SDS011;23188;51.188;16.374;2022-08-19T18:18:38;13.05;;;11.38;;
37303;SDS011;23188;51.188;16.374;2022-08-19T18:22:43;15.25;;;12.47;;
37303;SDS011;23188;51.188;16.374;2022-08-19T18:26:47;16.57;;;14.53;;
37303;SDS011;23188;51.188;16.374;2022-08-19T18:30:48;17.80;;;12.20;;
37303;SDS011;23188;51.188;16.374;2022-08-19T18:34:50;19.98;;;13.50;;
37303;SDS011;23188;51.188;16.374;2022-08-19T18:38:52;14.60;;;12.47;;
37303;SDS011;23188;51.188;16.374;2022-08-19T18:43:12;22.52;;;15.35;;
37303;SDS011;23188;51.188;16.374;2022-08-19T18:47:23;21.87;;;15.05;;
37303;SDS011;23188;51.188;16.374;2022-08-19T18:51:42;20.90;;;16.62;;
37303;SDS011;23188;51.188;16.374;2022-08-19T18:55:44;21.97;;;16.52;;
37303;SDS011;23188;51.188;16.374;2022-08-19T18:59:47;21.15;;;16.05;;
37303;SDS011;23188;51.188;16.374;2022-08-19T19:03:49;22.42;;;16.30;;
37303;SDS011;23188;51.188;16.374;2022-08-19T19:07:53;20.70;;;15.88;;
37303;SDS011;23188;51.188;16.374;2022-08-19T19:11:59;24.35;;;15.85;;
37303;SDS011;23188;51.188;16.374;2022-08-19T19:16:01;58.98;;;21.23;;
37303;SDS011;23188;51.188;16.374;2022-08-19T19:20:03;43.42;;;19.05;;
37303;SDS011;23188;51.188;16.374;2022-08-19T19:24:05;23.95;;;14.33;;
37303;SDS011;23188;51.188;16.374;2022-08-19T19:28:08;23.52;;;15.38;;
37303;SDS011;23188;51.188;16.374;2022-08-19T19:32:15;19.60;;;14.87;;
37303;SDS011;23188;51.188;16.374;2022-08-19T19:36:22;25.23;;;18.48;;
37303;SDS011;23188;51.188;16.374;2022-08-19T19:40:24;53.00;;;27.85;;
37303;SDS011;23188;51.188;16.374;2022-08-19T19:44:25;46.08;;;24.70;;
37303;SDS011;23188;51.188;16.374;2022-08-19T19:48:27;51.35;;;29.95;;
37303;SDS011;23188;51.188;16.374;2022-08-19T19:52:28;33.48;;;20.60;;
37303;SDS011;23188;51.188;16.374;2022-08-19T19:56:30;29.02;;;18.45;;
37303;SDS011;23188;51.188;16.374;2022-08-19T20:00:32;40.03;;;21.93;;
37303;SDS011;23188;51.188;16.374;2022-08-19T20:04:33;26.40;;;18.52;;
37303;SDS011;23188;51.188;16.374;2022-08-19T20:08:35;19.15;;;15.72;;
37303;SDS011;23188;51.188;16.374;2022-08-19T20:12:55;31.05;;;17.25;;
37303;SDS011;23188;51.188;16.374;2022-08-19T20:16:57;28.50;;;17.02;;
37303;SDS011;23188;51.188;16.374;2022-08-19T20:20:59;20.65;;;17.98;;
37303;SDS011;23188;51.188;16.374;2022-08-19T20:25:01;20.88;;;15.13;;
37303;SDS011;23188;51.188;16.374;2022-08-19T20:29:02;18.85;;;16.25;;
37303;SDS011;23188;51.188;16.374;2022-08-19T20:33:04;23.95;;;18.35;;
37303;SDS011;23188;51.188;16.374;2022-08-19T20:37:06;19.37;;;16.95;;
37303;SDS011;23188;51.188;16.374;2022-08-19T20:41:08;24.40;;;19.45;;
37303;SDS011;23188;51.188;16.374;2022-08-19T20:45:12;26.48;;;19.15;;
37303;SDS011;23188;51.188;16.374;2022-08-19T20:49:15;20.97;;;17.15;;
37303;SDS011;23188;51.188;16.374;2022-08-19T20:53:18;32.85;;;21.02;;
37303;SDS011;23188;51.188;16.374;2022-08-19T20:57:22;24.30;;;18.75;;
37303;SDS011;23188;51.188;16.374;2022-08-19T21:01:23;25.02;;;21.42;;
37303;SDS011;23188;51.188;16.374;2022-08-19T21:05:25;28.25;;;22.35;;
37303;SDS011;23188;51.188;16.374;2022-08-19T21:09:26;29.20;;;23.52;;
37303;SDS011;23188;51.188;16.374;2022-08-19T21:13:28;26.50;;;22.37;;
37303;SDS011;23188;51.188;16.374;2022-08-19T21:17:30;26.70;;;22.02;;
37303;SDS011;23188;51.188;16.374;2022-08-19T21:21:32;26.45;;;21.90;;
37303;SDS011;23188;51.188;16.374;2022-08-19T21:25:34;38.08;;;25.88;;
37303;SDS011;23188;51.188;16.374;2022-08-19T21:29:35;27.05;;;21.25;;
37303;SDS011;23188;51.188;16.374;2022-08-19T21:33:39;25.60;;;21.45;;
37303;SDS011;23188;51.188;16.374;2022-08-19T21:37:41;27.50;;;21.85;;
37303;SDS011;23188;51.188;16.374;2022-08-19T21:41:42;24.77;;;21.75;;
37303;SDS011;23188;51.188;16.374;2022-08-19T21:45:44;29.02;;;23.62;;
37303;SDS011;23188;51.188;16.374;2022-08-19T21:49:47;30.95;;;24.10;;
37303;SDS011;23188;51.188;16.374;2022-08-19T21:53:48;32.03;;;25.62;;
37303;SDS011;23188;51.188;16.374;2022-08-19T21:57:50;35.58;;;27.45;;
37303;SDS011;23188;51.188;16.374;2022-08-19T22:01:51;56.18;;;27.32;;
37303;SDS011;23188;51.188;16.374;2022-08-19T22:05:52;34.10;;;26.00;;
37303;SDS011;23188;51.188;16.374;2022-08-19T22:09:54;39.13;;;25.48;;
37303;SDS011;23188;51.188;16.374;2022-08-19T22:13:55;29.02;;;23.80;;
37303;SDS011;23188;51.188;16.374;2022-08-19T22:17:57;31.93;;;22.10;;
37303;SDS011;23188;51.188;16.374;2022-08-19T22:22:00;25.75;;;21.70;;
37303;SDS011;23188;51.188;16.374;2022-08-19T22:26:01;27.20;;;21.48;;
37303;SDS011;23188;51.188;16.374;2022-08-19T22:30:06;26.90;;;22.35;;
37303;SDS011;23188;51.188;16.374;2022-08-19T22:34:11;26.95;;;23.55;;
37303;SDS011;23188;51.188;16.374;2022-08-19T22:38:13;29.82;;;23.27;;
37303;SDS011;23188;51.188;16.374;2022-08-19T22:42:19;28.55;;;23.87;;
37303;SDS011;23188;51.188;16.374;2022-08-19T22:46:21;25.32;;;21.17;;
37303;SDS011;23188;51.188;16.374;2022-08-19T22:50:23;26.57;;;20.35;;
37303;SDS011;23188;51.188;16.374;2022-08-19T22:54:25;27.22;;;19.37;;
37303;SDS011;23188;51.188;16.374;2022-08-19T22:58:26;29.98;;;21.60;;
37303;SDS011;23188;51.188;16.374;2022-08-19T23:02:31;30.97;;;21.60;;
37303;SDS011;23188;51.188;16.374;2022-08-19T23:06:37;25.23;;;21.15;;
37303;SDS011;23188;51.188;16.374;2022-08-19T23:10:40;24.63;;;20.40;;
37303;SDS011;23188;51.188;16.374;2022-08-19T23:14:42;26.48;;;20.68;;
37303;SDS011;23188;51.188;16.374;2022-08-19T23:18:43;26.35;;;20.65;;
37303;SDS011;23188;51.188;16.374;2022-08-19T23:22:45;28.67;;;22.25;;
37303;SDS011;23188;51.188;16.374;2022-08-19T23:26:49;26.77;;;20.65;;
37303;SDS011;23188;51.188;16.374;2022-08-19T23:31:10;36.68;;;23.30;;
37303;SDS011;23188;51.188;16.374;2022-08-19T23:35:12;25.65;;;20.52;;
37303;SDS011;23188;51.188;16.374;2022-08-19T23:39:14;22.85;;;19.37;;
37303;SDS011;23188;51.188;16.374;2022-08-19T23:43:15;27.37;;;20.77;;
37303;SDS011;23188;51.188;16.374;2022-08-19T23:47:17;28.00;;;22.07;;